createdAt,value
2022-08-19T00:00:29.574Z,19.50
2022-08-19T00:01:30.556Z,19.47
2022-08-19T00:02:30.174Z,19.46
2022-08-19T00:03:30.492Z,19.46
2022-08-19T00:04:30.871Z,19.47
2022-08-19T00:05:31.075Z,19.46
2022-08-19T00:06:31.370Z,19.42
2022-08-19T00:07:31.712Z,19.42
2022-08-19T00:08:32.001Z,19.39
2022-08-19T00:09:32.361Z,19.39
2022-08-19T00:10:32.671Z,19.39
2022-08-19T00:11:32.975Z,19.40
2022-08-19T00:12:33.345Z,19.40
2022-08-19T00:13:34.620Z,19.39
2022-08-19T00:14:33.964Z,19.36
2022-08-19T00:15:34.319Z,19.35
2022-08-19T00:16:34.593Z,19.36
2022-08-19T00:17:34.926Z,19.33
2022-08-19T00:18:35.221Z,19.32
2022-08-19T00:19:35.556Z,19.32
2022-08-19T00:20:35.897Z,19.31
2022-08-19T00:21:36.182Z,19.29
2022-08-19T00:22:36.515Z,19.28
2022-08-19T00:23:36.854Z,19.24
2022-08-19T00:24:37.187Z,19.24
2022-08-19T00:25:37.576Z,19.24
2022-08-19T00:26:37.755Z,19.23
2022-08-19T00:27:38.084Z,19.20
2022-08-19T00:28:38.427Z,19.20
2022-08-19T00:29:38.767Z,19.17
2022-08-19T00:30:39.115Z,19.15
2022-08-19T00:31:39.402Z,19.13
2022-08-19T00:32:39.732Z,19.11
2022-08-19T00:33:40.057Z,19.10
2022-08-19T00:34:40.374Z,19.08
2022-08-19T00:35:40.738Z,19.05
2022-08-19T00:36:41.019Z,19.06
2022-08-19T00:37:41.345Z,19.06
2022-08-19T00:38:41.691Z,19.06
2022-08-19T00:39:42.082Z,19.05
2022-08-19T00:40:42.359Z,19.01
2022-08-19T00:41:42.659Z,19.01
2022-08-19T00:42:42.996Z,19.01
2022-08-19T00:43:43.331Z,18.99
2022-08-19T00:44:43.674Z,18.99
2022-08-19T00:45:43.996Z,18.98
2022-08-19T00:46:44.311Z,18.98
2022-08-19T00:47:44.647Z,18.97
2022-08-19T00:48:44.970Z,18.95
2022-08-19T00:49:45.266Z,18.94
2022-08-19T00:50:51.961Z,18.94
2022-08-19T00:51:46.896Z,18.91
2022-08-19T00:52:46.141Z,18.90
2022-08-19T00:53:46.476Z,18.87
2022-08-19T00:54:49.698Z,18.84
2022-08-19T00:55:48.108Z,18.84
2022-08-19T00:56:47.401Z,18.83
2022-08-19T00:57:47.710Z,18.83
2022-08-19T00:58:47.991Z,18.80
2022-08-19T01:00:00.807Z,18.79
2022-08-19T01:00:49.641Z,18.80
2022-08-19T01:01:48.890Z,18.77
2022-08-19T01:02:49.215Z,18.79
2022-08-19T01:03:57.127Z,18.77
2022-08-19T01:04:50.771Z,18.76
2022-08-19T01:05:50.051Z,18.73
2022-08-19T01:06:50.339Z,18.72
2022-08-19T01:07:50.577Z,18.72
2022-08-19T01:08:50.906Z,18.72
2022-08-19T01:09:51.218Z,18.70
2022-08-19T01:10:51.580Z,18.68
2022-08-19T01:11:51.849Z,18.67
2022-08-19T01:12:52.259Z,18.65
2022-08-19T01:13:52.494Z,18.62
2022-08-19T01:14:52.821Z,18.59
2022-08-19T01:15:53.190Z,18.57
2022-08-19T01:16:53.460Z,18.55
2022-08-19T01:17:53.790Z,18.55
2022-08-19T01:18:54.112Z,18.52
2022-08-19T01:19:54.444Z,18.54
2022-08-19T01:20:54.813Z,18.50
2022-08-19T01:21:55.113Z,18.50
2022-08-19T01:22:55.430Z,18.49
2022-08-19T01:23:55.720Z,18.49
2022-08-19T01:24:56.056Z,18.49
2022-08-19T01:25:56.421Z,18.49
2022-08-19T01:26:56.609Z,18.47
2022-08-19T01:27:56.953Z,18.47
2022-08-19T01:29:00.720Z,18.46
2022-08-19T01:29:57.470Z,18.44
2022-08-19T01:30:57.802Z,18.43
2022-08-19T01:31:58.171Z,18.42
2022-08-19T01:32:58.456Z,18.40
2022-08-19T01:33:58.779Z,18.37
2022-08-19T01:34:59.113Z,18.34
2022-08-19T01:35:59.458Z,18.31
2022-08-19T01:36:59.742Z,18.31
2022-08-19T01:38:00.071Z,18.31
2022-08-19T01:39:00.414Z,18.33
2022-08-19T01:40:00.775Z,18.31
2022-08-19T01:41:01.099Z,18.33
2022-08-19T01:42:01.384Z,18.31
2022-08-19T01:43:01.726Z,18.29
2022-08-19T01:44:13.653Z,18.29
2022-08-19T01:45:03.325Z,18.29
2022-08-19T01:46:02.572Z,18.25
2022-08-19T01:47:02.867Z,18.24
2022-08-19T01:48:03.237Z,18.24
2022-08-19T01:49:03.550Z,18.25
2022-08-19T01:50:03.835Z,18.24
2022-08-19T01:51:04.178Z,18.22
2022-08-19T01:52:04.475Z,18.24
2022-08-19T01:53:06.971Z,18.21
2022-08-19T01:54:05.099Z,18.19
2022-08-19T01:55:05.397Z,18.17
2022-08-19T01:56:05.736Z,18.15
2022-08-19T01:57:06.028Z,18.13
2022-08-19T01:58:06.345Z,18.12
2022-08-19T01:59:06.664Z,18.07
2022-08-19T02:00:06.974Z,18.06
2022-08-19T02:01:07.373Z,18.09
2022-08-19T02:02:07.638Z,18.10
2022-08-19T02:03:07.968Z,18.10
2022-08-19T02:04:08.300Z,18.12
2022-08-19T02:05:08.641Z,18.19
2022-08-19T02:06:08.927Z,18.21
2022-08-19T02:07:09.331Z,18.22
2022-08-19T02:08:09.514Z,18.22
2022-08-19T02:09:09.849Z,18.24
2022-08-19T02:10:12.343Z,18.24
2022-08-19T02:11:10.497Z,18.27
2022-08-19T02:12:10.785Z,18.25
2022-08-19T02:13:11.119Z,18.27
2022-08-19T02:14:11.441Z,18.27
2022-08-19T02:15:11.764Z,18.28
2022-08-19T02:16:12.115Z,18.27
2022-08-19T02:17:12.408Z,18.25
2022-08-19T02:18:12.660Z,18.24
2022-08-19T02:19:13.002Z,18.24
2022-08-19T02:20:13.331Z,18.21
2022-08-19T02:21:13.675Z,18.21
2022-08-19T02:22:13.971Z,18.18
2022-08-19T02:23:16.140Z,18.19
2022-08-19T02:24:14.557Z,18.18
2022-08-19T02:25:14.910Z,18.15
2022-08-19T02:26:15.215Z,18.13
2022-08-19T02:27:15.496Z,18.12
2022-08-19T02:28:18.703Z,18.10
2022-08-19T02:29:16.105Z,18.09
2022-08-19T02:30:16.452Z,18.06
2022-08-19T02:31:16.749Z,18.04
2022-08-19T02:32:17.027Z,18.03
2022-08-19T02:33:17.349Z,18.06
2022-08-19T02:34:17.696Z,18.06
2022-08-19T02:35:18.007Z,18.06
2022-08-19T02:36:20.673Z,18.07
2022-08-19T02:37:18.660Z,18.09
2022-08-19T02:38:18.983Z,18.09
2022-08-19T02:39:19.310Z,18.07
2022-08-19T02:40:19.641Z,18.07
2022-08-19T02:41:19.977Z,18.04
2022-08-19T02:42:20.262Z,18.04
2022-08-19T02:43:20.609Z,18.04
2022-08-19T02:44:30.205Z,18.03
2022-08-19T02:45:22.179Z,18.02
2022-08-19T02:46:21.551Z,17.99
2022-08-19T02:47:21.828Z,18.00
2022-08-19T02:48:22.167Z,17.99
2022-08-19T02:49:22.491Z,18.00
2022-08-19T02:50:22.823Z,18.00
2022-08-19T02:51:23.173Z,17.99
2022-08-19T02:52:23.454Z,18.00
2022-08-19T02:53:23.784Z,18.00
2022-08-19T02:54:24.126Z,18.02
2022-08-19T02:55:24.442Z,18.02
2022-08-19T02:56:24.800Z,18.00
2022-08-19T02:57:25.070Z,17.99
2022-08-19T02:58:25.408Z,17.97
2022-08-19T02:59:25.710Z,17.97
2022-08-19T03:00:26.031Z,17.95
2022-08-19T03:01:26.448Z,17.95
2022-08-19T03:02:26.731Z,17.95
2022-08-19T03:03:27.067Z,17.94
2022-08-19T03:04:27.374Z,17.95
2022-08-19T03:05:28.418Z,17.94
2022-08-19T03:06:28.946Z,17.91
2022-08-19T03:07:28.161Z,17.91
2022-08-19T03:08:28.509Z,17.91
2022-08-19T03:09:28.803Z,17.91
2022-08-19T03:10:29.134Z,17.92
2022-08-19T03:11:29.474Z,17.92
2022-08-19T03:12:29.819Z,17.91
2022-08-19T03:13:30.143Z,17.92
2022-08-19T03:14:30.463Z,17.92
2022-08-19T03:15:30.792Z,17.91
2022-08-19T03:16:33.175Z,17.91
2022-08-19T03:17:31.446Z,17.91
2022-08-19T03:18:31.782Z,17.92
2022-08-19T03:19:32.112Z,17.91
2022-08-19T03:20:32.443Z,17.91
2022-08-19T03:21:32.809Z,17.91
2022-08-19T03:22:33.081Z,17.92
2022-08-19T03:23:33.403Z,17.89
2022-08-19T03:24:33.736Z,17.89
2022-08-19T03:25:34.056Z,17.89
2022-08-19T03:26:34.402Z,17.88
2022-08-19T03:27:34.820Z,17.89
2022-08-19T03:28:35.013Z,17.89
2022-08-19T03:29:43.029Z,17.88
2022-08-19T03:30:36.657Z,17.88
2022-08-19T03:31:41.785Z,17.85
2022-08-19T03:32:37.171Z,17.84
2022-08-19T03:33:37.487Z,17.84
2022-08-19T03:34:36.784Z,17.81
2022-08-19T03:35:37.117Z,17.79
2022-08-19T03:36:37.454Z,17.78
2022-08-19T03:37:37.815Z,17.76
2022-08-19T03:38:38.035Z,17.76
2022-08-19T03:39:38.424Z,17.76
2022-08-19T03:40:38.639Z,17.74
2022-08-19T03:41:45.704Z,17.73
2022-08-19T03:42:49.034Z,17.71
2022-08-19T03:43:40.535Z,17.71
2022-08-19T03:44:39.779Z,17.70
2022-08-19T03:45:40.105Z,17.70
2022-08-19T03:46:40.434Z,17.70
2022-08-19T03:47:40.654Z,17.70
2022-08-19T03:48:40.995Z,17.71
2022-08-19T03:49:41.324Z,17.71
2022-08-19T03:50:41.669Z,17.71
2022-08-19T03:51:42.004Z,17.73
2022-08-19T03:52:50.275Z,17.73
2022-08-19T03:53:43.626Z,17.74
2022-08-19T03:54:42.836Z,17.78
2022-08-19T03:55:43.157Z,17.79
2022-08-19T03:56:43.496Z,17.81
2022-08-19T03:57:43.840Z,17.79
2022-08-19T03:58:44.176Z,17.82
2022-08-19T03:59:44.417Z,17.84
2022-08-19T04:00:44.733Z,17.87
2022-08-19T04:01:45.147Z,17.88
2022-08-19T04:02:58.071Z,17.89
2022-08-19T04:03:46.599Z,17.89
2022-08-19T04:04:45.828Z,17.88
2022-08-19T04:05:46.148Z,17.88
2022-08-19T04:06:46.515Z,17.87
2022-08-19T04:07:46.811Z,17.88
2022-08-19T04:08:47.044Z,17.87
2022-08-19T04:09:47.270Z,17.87
2022-08-19T04:10:47.507Z,17.85
2022-08-19T04:11:47.746Z,17.84
2022-08-19T04:12:48.057Z,17.84
2022-08-19T04:13:48.331Z,17.85
2022-08-19T04:14:48.558Z,17.87
2022-08-19T04:15:48.921Z,17.85
2022-08-19T04:16:49.249Z,17.84
2022-08-19T04:17:49.545Z,17.84
2022-08-19T04:18:49.892Z,17.84
2022-08-19T04:19:50.208Z,17.84
2022-08-19T04:20:50.559Z,17.82
2022-08-19T04:21:50.794Z,17.82
2022-08-19T04:22:51.009Z,17.82
2022-08-19T04:23:51.348Z,17.84
2022-08-19T04:24:51.678Z,17.81
2022-08-19T04:25:52.067Z,17.82
2022-08-19T04:26:52.370Z,17.81
2022-08-19T04:27:52.609Z,17.82
2022-08-19T04:28:52.837Z,17.84
2022-08-19T04:29:53.126Z,17.84
2022-08-19T04:30:53.332Z,17.82
2022-08-19T04:31:53.550Z,17.85
2022-08-19T04:32:54.002Z,17.88
2022-08-19T04:33:54.109Z,17.88
2022-08-19T04:35:02.156Z,17.88
2022-08-19T04:35:55.678Z,17.89
2022-08-19T04:36:54.991Z,17.92
2022-08-19T04:37:55.193Z,17.94
2022-08-19T04:38:55.434Z,17.97
2022-08-19T04:39:58.681Z,17.99
2022-08-19T04:40:56.983Z,18.00
2022-08-19T04:41:56.255Z,18.02
2022-08-19T04:42:56.573Z,18.02
2022-08-19T04:43:59.208Z,18.04
2022-08-19T04:44:58.120Z,18.06
2022-08-19T04:46:00.862Z,18.07
2022-08-19T04:46:57.674Z,18.09
2022-08-19T04:48:19.652Z,18.10
2022-08-19T04:48:59.170Z,18.12
2022-08-19T04:49:59.493Z,18.12
2022-08-19T04:50:58.738Z,18.15
2022-08-19T04:51:59.001Z,18.17
2022-08-19T04:52:59.333Z,18.18
2022-08-19T04:53:59.665Z,18.19
2022-08-19T04:55:00.078Z,18.19
2022-08-19T04:56:00.293Z,18.22
2022-08-19T04:57:00.697Z,18.22
2022-08-19T04:58:00.900Z,18.22
2022-08-19T04:59:01.143Z,18.24
2022-08-19T05:00:01.833Z,18.27
2022-08-19T05:01:01.725Z,18.28
2022-08-19T05:02:01.957Z,18.28
2022-08-19T05:03:02.242Z,18.29
2022-08-19T05:04:02.435Z,18.33
2022-08-19T05:05:02.792Z,18.34
2022-08-19T05:06:02.993Z,18.39
2022-08-19T05:07:03.252Z,18.42
2022-08-19T05:08:03.527Z,18.46
2022-08-19T05:09:03.807Z,18.49
2022-08-19T05:10:04.040Z,18.57
2022-08-19T05:11:04.293Z,18.61
2022-08-19T05:12:04.564Z,18.64
2022-08-19T05:13:04.798Z,18.68
2022-08-19T05:14:05.115Z,18.72
2022-08-19T05:15:05.403Z,18.76
2022-08-19T05:16:05.615Z,18.79
2022-08-19T05:17:26.077Z,18.82
2022-08-19T05:18:07.189Z,18.87
2022-08-19T05:19:06.467Z,18.94
2022-08-19T05:20:07.828Z,18.98
2022-08-19T05:21:07.078Z,19.02
2022-08-19T05:22:07.356Z,19.05
2022-08-19T05:23:13.350Z,19.10
2022-08-19T05:24:08.925Z,19.10
2022-08-19T05:25:14.842Z,19.13
2022-08-19T05:26:09.348Z,19.13
2022-08-19T05:27:08.624Z,19.13
2022-08-19T05:28:08.866Z,19.14
2022-08-19T05:29:09.119Z,19.17
2022-08-19T05:30:09.438Z,19.17
2022-08-19T05:31:17.245Z,19.21
2022-08-19T05:32:09.968Z,19.28
2022-08-19T05:33:10.244Z,19.29
2022-08-19T05:34:20.075Z,19.31
2022-08-19T05:35:11.707Z,19.33
2022-08-19T05:36:10.973Z,19.39
2022-08-19T05:37:11.259Z,19.43
2022-08-19T05:38:11.484Z,19.48
2022-08-19T05:39:11.717Z,19.48
2022-08-19T05:40:12.012Z,19.53
2022-08-19T05:41:12.233Z,19.51
2022-08-19T05:42:12.514Z,19.51
2022-08-19T05:43:12.748Z,19.54
2022-08-19T05:44:12.979Z,19.57
2022-08-19T05:45:13.198Z,19.58
2022-08-19T05:46:13.529Z,19.60
2022-08-19T05:47:13.807Z,19.66
2022-08-19T05:48:14.026Z,19.73
2022-08-19T05:49:15.049Z,19.80
2022-08-19T05:50:14.592Z,19.88
2022-08-19T05:51:14.859Z,19.97
2022-08-19T05:52:15.090Z,20.08
2022-08-19T05:53:15.450Z,20.20
2022-08-19T05:54:15.671Z,20.27
2022-08-19T05:55:16.017Z,20.41
2022-08-19T05:56:16.229Z,20.54
2022-08-19T05:57:16.486Z,20.68
2022-08-19T05:58:16.711Z,20.80
2022-08-19T05:59:16.941Z,20.86
2022-08-19T06:00:24.722Z,20.93
2022-08-19T06:01:18.594Z,20.99
2022-08-19T06:02:17.904Z,21.02
2022-08-19T06:03:18.110Z,21.08
2022-08-19T06:04:18.332Z,21.11
2022-08-19T06:05:18.602Z,21.14
2022-08-19T06:06:18.831Z,21.20
2022-08-19T06:07:19.222Z,21.21
2022-08-19T06:08:19.616Z,21.23
2022-08-19T06:09:19.762Z,21.21
2022-08-19T06:10:20.125Z,21.24
2022-08-19T06:11:20.352Z,21.35
2022-08-19T06:12:20.592Z,21.48
2022-08-19T06:13:20.834Z,21.63
2022-08-19T06:14:21.049Z,21.75
2022-08-19T06:15:22.357Z,21.83
2022-08-19T06:16:21.660Z,21.95
2022-08-19T06:17:21.884Z,22.09
2022-08-19T06:18:22.132Z,22.31
2022-08-19T06:19:22.372Z,22.47
2022-08-19T06:20:39.790Z,22.65
2022-08-19T06:21:23.920Z,22.83
2022-08-19T06:22:23.251Z,22.96
2022-08-19T06:23:24.289Z,23.09
2022-08-19T06:24:23.739Z,23.24
2022-08-19T06:25:26.848Z,23.39
2022-08-19T06:26:25.325Z,23.53
2022-08-19T06:27:24.627Z,23.61
2022-08-19T06:28:24.852Z,23.65
2022-08-19T06:29:25.155Z,23.65
2022-08-19T06:30:25.410Z,23.71
2022-08-19T06:31:25.637Z,23.79
2022-08-19T06:32:25.896Z,23.85
2022-08-19T06:33:26.112Z,23.83
2022-08-19T06:34:26.397Z,23.85
2022-08-19T06:35:26.657Z,23.83
2022-08-19T06:36:27.003Z,23.79
2022-08-19T06:37:27.285Z,23.82
2022-08-19T06:38:27.496Z,23.65
2022-08-19T06:39:27.769Z,23.62
2022-08-19T06:40:28.014Z,23.61
2022-08-19T06:41:28.287Z,23.47
2022-08-19T06:42:28.525Z,23.29
2022-08-19T06:43:29.151Z,23.27
2022-08-19T06:44:28.996Z,23.26
2022-08-19T06:45:34.939Z,23.32
2022-08-19T06:46:30.573Z,23.27
2022-08-19T06:47:29.875Z,23.26
2022-08-19T06:48:30.128Z,23.19
2022-08-19T06:49:30.379Z,23.29
2022-08-19T06:50:30.719Z,23.42
2022-08-19T06:52:31.307Z,23.67
2022-08-19T06:53:31.530Z,23.82
2022-08-19T06:54:31.818Z,23.95
2022-08-19T06:55:33.517Z,24.13
2022-08-19T06:56:32.400Z,24.20
2022-08-19T06:57:32.639Z,24.32
2022-08-19T06:58:32.872Z,24.45
2022-08-19T06:59:33.092Z,24.49
2022-08-19T07:00:33.351Z,24.54
2022-08-19T07:01:33.601Z,24.60
2022-08-19T07:02:33.880Z,24.68
2022-08-19T07:03:34.090Z,24.82
2022-08-19T07:04:34.409Z,24.98
2022-08-19T07:05:34.658Z,25.06
2022-08-19T07:06:44.306Z,25.17
2022-08-19T07:07:36.222Z,25.42
2022-08-19T07:09:35.795Z,25.86
2022-08-19T07:10:36.022Z,26.27
2022-08-19T07:11:36.304Z,26.76
2022-08-19T07:12:38.141Z,27.29
2022-08-19T07:13:36.880Z,27.82
2022-08-19T07:14:37.192Z,28.35
2022-08-19T07:15:37.453Z,28.81
2022-08-19T07:16:41.238Z,29.28
2022-08-19T07:17:39.145Z,29.53
2022-08-19T07:18:38.306Z,29.99
2022-08-19T07:19:38.613Z,30.33
2022-08-19T07:20:38.893Z,30.78
2022-08-19T07:21:39.219Z,31.11
2022-08-19T07:22:39.496Z,31.17
2022-08-19T07:23:39.796Z,31.39
2022-08-19T07:24:40.034Z,31.57
2022-08-19T07:25:41.389Z,31.61
2022-08-19T07:26:40.703Z,31.45
2022-08-19T07:27:41.027Z,31.20
2022-08-19T07:28:46.002Z,31.05
2022-08-19T07:29:42.587Z,30.87
2022-08-19T07:30:41.875Z,30.65
2022-08-19T07:31:43.507Z,30.56
2022-08-19T07:32:42.476Z,30.54
2022-08-19T07:33:42.747Z,30.67
2022-08-19T07:34:43.081Z,30.78
2022-08-19T07:35:43.337Z,30.91
2022-08-19T07:36:43.626Z,31.12
2022-08-19T07:37:43.917Z,31.36
2022-08-19T07:38:44.160Z,31.54
2022-08-19T07:39:44.529Z,31.61
2022-08-19T07:40:44.824Z,31.65
2022-08-19T07:41:45.090Z,31.82
2022-08-19T07:42:45.379Z,31.95
2022-08-19T07:43:45.629Z,32.11
2022-08-19T07:44:50.707Z,32.05
2022-08-19T07:45:47.233Z,31.54
2022-08-19T07:46:48.212Z,31.61
2022-08-19T07:47:48.274Z,31.54
2022-08-19T07:48:47.229Z,31.15
2022-08-19T07:49:47.478Z,31.15
2022-08-19T07:50:47.741Z,31.17
2022-08-19T07:51:48.049Z,31.06
2022-08-19T07:52:48.735Z,31.18
2022-08-19T07:53:48.601Z,31.36
2022-08-19T07:54:48.892Z,31.48
2022-08-19T07:55:49.203Z,31.46
2022-08-19T07:56:49.454Z,31.54
2022-08-19T07:57:49.696Z,31.60
2022-08-19T07:58:49.983Z,31.76
2022-08-19T07:59:50.210Z,31.87
2022-08-19T08:00:50.555Z,32.33
2022-08-19T08:01:50.814Z,32.61
2022-08-19T08:02:51.096Z,32.74
2022-08-19T08:03:51.335Z,32.84
2022-08-19T08:04:51.574Z,32.77
2022-08-19T08:05:51.912Z,32.79
2022-08-19T08:06:52.167Z,32.69
2022-08-19T08:07:52.515Z,32.64
2022-08-19T08:08:52.796Z,32.80
2022-08-19T08:10:56.957Z,32.81
2022-08-19T08:11:53.414Z,32.93
2022-08-19T08:13:09.160Z,33.07
2022-08-19T08:14:00.834Z,33.19
2022-08-19T08:14:56.075Z,32.47
2022-08-19T08:15:55.916Z,31.70
2022-08-19T08:16:54.763Z,31.50
2022-08-19T08:17:55.067Z,31.65
2022-08-19T08:18:55.319Z,31.95
2022-08-19T08:19:55.586Z,31.91
2022-08-19T08:20:55.827Z,31.50
2022-08-19T08:21:56.085Z,31.05
2022-08-19T08:22:56.348Z,30.65
2022-08-19T08:23:56.747Z,30.36
2022-08-19T08:24:56.841Z,30.29
2022-08-19T08:25:57.722Z,30.40
2022-08-19T08:26:57.952Z,30.16
2022-08-19T08:27:57.802Z,29.96
2022-08-19T08:28:58.010Z,29.72
2022-08-19T08:29:58.270Z,29.72
2022-08-19T08:30:58.566Z,29.78
2022-08-19T08:32:00.267Z,29.94
2022-08-19T08:32:59.126Z,30.31
2022-08-19T08:33:59.404Z,31.04
2022-08-19T08:34:59.661Z,31.54
2022-08-19T08:35:59.913Z,32.00
2022-08-19T08:37:00.197Z,31.95
2022-08-19T08:38:00.494Z,32.44
2022-08-19T08:39:00.804Z,32.70
2022-08-19T08:40:01.126Z,32.40
2022-08-19T08:41:01.392Z,32.55
2022-08-19T08:42:01.687Z,32.95
2022-08-19T08:44:02.248Z,33.76
2022-08-19T08:45:02.552Z,33.79
2022-08-19T08:46:02.889Z,33.87
2022-08-19T08:47:03.153Z,33.78
2022-08-19T08:48:03.458Z,33.61
2022-08-19T08:49:03.714Z,33.42
2022-08-19T08:50:04.104Z,33.42
2022-08-19T08:51:04.332Z,33.36
2022-08-19T08:52:04.660Z,33.30
2022-08-19T08:53:04.933Z,33.20
2022-08-19T08:54:05.211Z,33.31
2022-08-19T08:55:10.107Z,33.45
2022-08-19T08:56:06.743Z,33.42
2022-08-19T08:57:06.044Z,32.99
2022-08-19T08:58:06.373Z,32.81
2022-08-19T08:59:06.651Z,32.64
2022-08-19T09:00:06.896Z,32.18
2022-08-19T09:01:08.163Z,31.73
2022-08-19T09:02:07.458Z,31.61
2022-08-19T09:03:07.714Z,31.50
2022-08-19T09:04:07.947Z,31.46
2022-08-19T09:05:08.213Z,31.39
2022-08-19T09:06:12.002Z,31.40
2022-08-19T09:07:26.346Z,31.04
2022-08-19T09:08:09.974Z,30.87
2022-08-19T09:09:11.972Z,30.62
2022-08-19T09:10:10.085Z,30.53
2022-08-19T09:11:09.757Z,30.36
2022-08-19T09:12:11.736Z,30.12
2022-08-19T09:13:10.225Z,30.09
2022-08-19T09:14:23.562Z,30.07
2022-08-19T09:15:11.751Z,30.11
2022-08-19T09:16:11.089Z,30.12
2022-08-19T09:17:11.379Z,30.05
2022-08-19T09:18:15.264Z,30.03
2022-08-19T09:19:12.869Z,30.05
2022-08-19T09:20:12.248Z,30.09
2022-08-19T09:21:12.451Z,29.70
2022-08-19T09:22:12.779Z,29.57
2022-08-19T09:23:14.019Z,29.43
2022-08-19T09:24:13.307Z,29.25
2022-08-19T09:25:13.597Z,29.25
2022-08-19T09:26:13.891Z,29.26
2022-08-19T09:27:18.499Z,29.31
2022-08-19T09:28:22.182Z,29.31
2022-08-19T09:29:15.713Z,29.40
2022-08-19T09:30:15.013Z,29.56
2022-08-19T09:31:15.339Z,29.60
2022-08-19T09:32:26.965Z,29.59
2022-08-19T09:33:16.864Z,29.56
2022-08-19T09:34:21.183Z,29.55
2022-08-19T09:35:17.437Z,29.35
2022-08-19T09:36:23.503Z,29.34
2022-08-19T09:37:18.050Z,29.37
2022-08-19T09:38:17.364Z,29.31
2022-08-19T09:39:17.646Z,29.41
2022-08-19T09:40:18.008Z,29.47
2022-08-19T09:41:18.131Z,29.49
2022-08-19T09:42:29.858Z,29.43
2022-08-19T09:43:33.833Z,29.16
2022-08-19T09:44:20.058Z,29.15
2022-08-19T09:45:19.380Z,29.06
2022-08-19T09:46:19.613Z,29.03
2022-08-19T09:47:19.981Z,28.85
2022-08-19T09:48:23.659Z,28.84
2022-08-19T09:49:20.424Z,28.72
2022-08-19T09:50:20.692Z,28.66
2022-08-19T09:51:21.462Z,28.58
2022-08-19T09:52:21.259Z,28.59
2022-08-19T09:53:21.496Z,28.66
2022-08-19T09:54:24.205Z,28.73
2022-08-19T09:55:22.099Z,28.80
2022-08-19T09:56:22.395Z,28.66
2022-08-19T09:57:22.690Z,28.62
2022-08-19T09:58:26.518Z,28.53
2022-08-19T09:59:23.233Z,28.53
2022-08-19T10:00:23.473Z,28.29
2022-08-19T10:01:23.805Z,28.26
2022-08-19T10:02:23.959Z,27.91
2022-08-19T10:03:25.574Z,27.82
2022-08-19T10:04:25.381Z,27.80
2022-08-19T10:05:26.856Z,27.61
2022-08-19T10:06:46.100Z,27.43
2022-08-19T10:07:36.032Z,27.31
2022-08-19T10:08:26.712Z,27.36
2022-08-19T10:09:26.467Z,27.38
2022-08-19T10:10:27.171Z,27.41
2022-08-19T10:11:27.387Z,27.54
2022-08-19T10:12:26.847Z,27.67
2022-08-19T10:13:27.116Z,27.74
2022-08-19T10:14:27.363Z,27.91
2022-08-19T10:15:28.754Z,28.04
2022-08-19T10:16:30.451Z,28.11
2022-08-19T10:17:31.702Z,28.19
2022-08-19T10:18:29.539Z,28.22
2022-08-19T10:19:28.848Z,28.13
2022-08-19T10:20:29.178Z,27.86
2022-08-19T10:21:29.473Z,27.86
2022-08-19T10:22:29.747Z,27.73
2022-08-19T10:23:30.059Z,27.54
2022-08-19T10:24:30.200Z,27.51
2022-08-19T10:25:30.560Z,27.59
2022-08-19T10:26:30.812Z,27.71
2022-08-19T10:27:32.121Z,27.77
2022-08-19T10:28:31.430Z,27.74
2022-08-19T10:29:33.296Z,27.89
2022-08-19T10:30:31.980Z,27.77
2022-08-19T10:32:01.139Z,27.61
2022-08-19T10:32:34.101Z,27.43
2022-08-19T10:33:38.223Z,27.35
2022-08-19T10:34:34.002Z,27.20
2022-08-19T10:35:33.297Z,27.16
2022-08-19T10:36:34.629Z,27.14
2022-08-19T10:37:33.961Z,27.19
2022-08-19T10:38:34.281Z,27.32
2022-08-19T10:39:43.131Z,27.54
2022-08-19T10:40:35.770Z,27.79
2022-08-19T10:41:35.062Z,27.96
2022-08-19T10:42:35.375Z,28.11
2022-08-19T10:43:35.630Z,28.21
2022-08-19T10:44:35.916Z,28.23
2022-08-19T10:45:36.211Z,28.26
2022-08-19T10:46:36.448Z,28.17
2022-08-19T10:47:36.708Z,27.91
2022-08-19T10:48:36.949Z,27.79
2022-08-19T10:49:37.196Z,27.86
2022-08-19T10:50:37.497Z,27.99
2022-08-19T10:51:37.737Z,28.16
2022-08-19T10:52:39.234Z,28.17
2022-08-19T10:53:38.366Z,28.25
2022-08-19T10:54:38.601Z,28.38
2022-08-19T10:55:38.841Z,28.51
2022-08-19T10:56:39.067Z,28.66
2022-08-19T10:58:01.787Z,28.75
2022-08-19T10:58:40.689Z,28.81
2022-08-19T10:59:39.981Z,28.75
2022-08-19T11:00:40.251Z,28.69
2022-08-19T11:01:40.542Z,28.77
2022-08-19T11:02:40.752Z,28.65
2022-08-19T11:03:41.042Z,28.70
2022-08-19T11:04:41.350Z,28.62
2022-08-19T11:05:41.621Z,28.65
2022-08-19T11:06:42.022Z,28.56
2022-08-19T11:07:43.020Z,28.62
2022-08-19T11:08:42.347Z,28.73
2022-08-19T11:09:42.617Z,28.72
2022-08-19T11:10:42.863Z,28.46
2022-08-19T11:11:44.346Z,28.22
2022-08-19T11:12:43.470Z,28.06
2022-08-19T11:13:43.768Z,27.99
2022-08-19T11:14:44.103Z,27.89
2022-08-19T11:15:44.391Z,27.84
2022-08-19T11:16:44.654Z,27.96
2022-08-19T11:17:44.934Z,28.13
2022-08-19T11:18:45.140Z,28.23
2022-08-19T11:19:45.415Z,28.38
2022-08-19T11:20:45.631Z,28.46
2022-08-19T11:21:46.137Z,28.50
2022-08-19T11:22:47.127Z,28.47
2022-08-19T11:23:46.594Z,28.31
2022-08-19T11:24:46.990Z,28.33
2022-08-19T11:25:47.122Z,28.41
2022-08-19T11:26:47.418Z,28.44
2022-08-19T11:27:47.714Z,28.51
2022-08-19T11:28:47.994Z,28.58
2022-08-19T11:29:48.228Z,28.69
2022-08-19T11:30:48.608Z,28.80
2022-08-19T11:31:48.760Z,28.93
2022-08-19T11:32:49.598Z,29.06
2022-08-19T11:33:49.305Z,28.95
2022-08-19T11:34:49.570Z,29.04
2022-08-19T11:35:49.916Z,29.07
2022-08-19T11:36:50.077Z,29.06
2022-08-19T11:37:50.452Z,29.11
2022-08-19T11:38:50.771Z,29.19
2022-08-19T11:39:53.406Z,29.16
2022-08-19T11:40:51.266Z,28.97
2022-08-19T11:41:51.508Z,28.78
2022-08-19T11:42:51.787Z,28.72
2022-08-19T11:43:59.515Z,28.70
2022-08-19T11:44:53.975Z,28.66
2022-08-19T11:45:53.336Z,28.68
2022-08-19T11:46:52.885Z,28.62
2022-08-19T11:47:53.293Z,28.50
2022-08-19T11:48:53.336Z,28.48
2022-08-19T11:49:53.616Z,28.23
2022-08-19T11:50:53.846Z,28.22
2022-08-19T11:51:54.115Z,28.13
2022-08-19T11:52:54.365Z,28.11
2022-08-19T11:53:54.622Z,28.03
2022-08-19T11:54:54.910Z,27.95
2022-08-19T11:55:55.144Z,27.80
2022-08-19T11:56:55.440Z,27.76
2022-08-19T11:57:55.942Z,27.71
2022-08-19T11:58:56.864Z,27.70
2022-08-19T11:59:56.270Z,27.74
2022-08-19T12:00:56.520Z,27.71
2022-08-19T12:01:56.752Z,27.67
2022-08-19T12:02:57.081Z,27.67
2022-08-19T12:03:57.375Z,27.67
2022-08-19T12:04:58.529Z,27.71
2022-08-19T12:05:57.921Z,27.71
2022-08-19T12:06:58.192Z,27.66
2022-08-19T12:07:58.601Z,27.50
2022-08-19T12:08:58.718Z,27.33
2022-08-19T12:09:58.965Z,27.36
2022-08-19T12:10:59.178Z,27.51
2022-08-19T12:11:59.448Z,27.67
2022-08-19T12:12:59.730Z,27.85
2022-08-19T12:13:59.940Z,27.98
2022-08-19T12:15:00.200Z,28.09
2022-08-19T12:16:00.414Z,28.14
2022-08-19T12:17:00.751Z,28.25
2022-08-19T12:18:00.933Z,28.21
2022-08-19T12:19:02.156Z,28.16
2022-08-19T12:20:01.403Z,28.28
2022-08-19T12:21:08.723Z,28.40
2022-08-19T12:22:02.008Z,28.51
2022-08-19T12:24:29.335Z,28.59
2022-08-19T12:24:40.278Z,28.65
2022-08-19T12:25:34.548Z,28.50
2022-08-19T12:26:35.844Z,28.47
2022-08-19T12:27:40.785Z,28.41
2022-08-19T12:28:36.398Z,28.21
2022-08-19T12:29:35.676Z,28.17
2022-08-19T12:30:35.929Z,28.22
2022-08-19T12:31:36.202Z,28.23
2022-08-19T12:32:36.448Z,28.16
2022-08-19T12:33:36.722Z,28.14
2022-08-19T12:34:36.939Z,28.11
2022-08-19T12:35:37.233Z,27.99
2022-08-19T12:36:37.454Z,27.96
2022-08-19T12:37:37.759Z,27.96
2022-08-19T12:38:38.004Z,27.98
2022-08-19T12:39:38.266Z,27.98
2022-08-19T12:40:38.530Z,27.99
2022-08-19T12:41:51.516Z,28.04
2022-08-19T12:42:40.062Z,27.98
2022-08-19T12:43:39.355Z,27.96
2022-08-19T12:44:41.670Z,27.99
2022-08-19T12:45:40.565Z,28.01
2022-08-19T12:46:40.261Z,28.03
2022-08-19T12:47:40.859Z,28.09
2022-08-19T12:48:40.772Z,28.11
2022-08-19T12:49:53.839Z,28.13
2022-08-19T12:50:42.394Z,28.10
2022-08-19T12:51:41.662Z,28.07
2022-08-19T12:52:41.960Z,28.04
2022-08-19T12:53:42.173Z,28.07
2022-08-19T12:54:42.443Z,28.13
2022-08-19T12:55:42.716Z,28.19
2022-08-19T12:56:43.006Z,28.16
2022-08-19T12:57:43.244Z,28.09
2022-08-19T12:58:50.296Z,28.09
2022-08-19T12:59:44.816Z,28.10
2022-08-19T13:00:44.128Z,28.13